sensor_id;sensor_type;location;lat;lon;timestamp;temperature;humidity
10538;DHT22;5317;49.048;8.468;2022-10-31T00:01:31;16.60;76.30
10538;DHT22;5317;49.048;8.468;2022-10-31T00:04:00;16.70;76.60
10538;DHT22;5317;49.048;8.468;2022-10-31T00:06:28;16.60;76.30
10538;DHT22;5317;49.048;8.468;2022-10-31T00:08:56;16.60;76.30
10538;DHT22;5317;49.048;8.468;2022-10-31T00:11:28;16.60;76.30
10538;DHT22;5317;49.048;8.468;2022-10-31T00:13:57;16.60;76.30
10538;DHT22;5317;49.048;8.468;2022-10-31T00:16:27;16.60;76.30
10538;DHT22;5317;49.048;8.468;2022-10-31T00:18:57;16.50;76.20
10538;DHT22;5317;49.048;8.468;2022-10-31T00:21:28;16.50;77.20
10538;DHT22;5317;49.048;8.468;2022-10-31T00:23:57;16.40;76.30
10538;DHT22;5317;49.048;8.468;2022-10-31T00:26:28;16.40;77.20
10538;DHT22;5317;49.048;8.468;2022-10-31T00:28:57;16.40;76.40
10538;DHT22;5317;49.048;8.468;2022-10-31T00:31:27;16.30;76.40
10538;DHT22;5317;49.048;8.468;2022-10-31T00:33:55;16.40;76.60
10538;DHT22;5317;49.048;8.468;2022-10-31T00:36:22;16.30;76.60
10538;DHT22;5317;49.048;8.468;2022-10-31T00:38:51;16.30;76.90
10538;DHT22;5317;49.048;8.468;2022-10-31T00:41:19;16.30;76.90
10538;DHT22;5317;49.048;8.468;2022-10-31T00:43:47;16.20;76.80
10538;DHT22;5317;49.048;8.468;2022-10-31T00:46:14;16.20;76.70
10538;DHT22;5317;49.048;8.468;2022-10-31T00:48:42;16.20;76.30
10538;DHT22;5317;49.048;8.468;2022-10-31T00:51:09;16.20;76.40
10538;DHT22;5317;49.048;8.468;2022-10-31T00:53:37;16.20;76.40
10538;DHT22;5317;49.048;8.468;2022-10-31T00:56:06;16.20;76.40
10538;DHT22;5317;49.048;8.468;2022-10-31T00:58:33;16.20;76.50
10538;DHT22;5317;49.048;8.468;2022-10-31T01:01:02;16.10;76.30
10538;DHT22;5317;49.048;8.468;2022-10-31T01:03:32;16.10;76.50
10538;DHT22;5317;49.048;8.468;2022-10-31T01:06:02;16.10;76.20
10538;DHT22;5317;49.048;8.468;2022-10-31T01:08:31;16.00;75.80
10538;DHT22;5317;49.048;8.468;2022-10-31T01:11:05;16.10;76.40
10538;DHT22;5317;49.048;8.468;2022-10-31T01:13:35;16.10;75.70
10538;DHT22;5317;49.048;8.468;2022-10-31T01:16:05;16.10;75.60
10538;DHT22;5317;49.048;8.468;2022-10-31T01:18:35;16.10;75.80
10538;DHT22;5317;49.048;8.468;2022-10-31T01:21:05;16.00;75.80
10538;DHT22;5317;49.048;8.468;2022-10-31T01:23:34;15.90;76.00
10538;DHT22;5317;49.048;8.468;2022-10-31T01:26:04;15.90;76.10
10538;DHT22;5317;49.048;8.468;2022-10-31T01:28:35;15.90;76.00
10538;DHT22;5317;49.048;8.468;2022-10-31T01:31:07;15.90;75.80
10538;DHT22;5317;49.048;8.468;2022-10-31T01:33:35;15.90;75.70
10538;DHT22;5317;49.048;8.468;2022-10-31T01:36:12;15.90;75.60
10538;DHT22;5317;49.048;8.468;2022-10-31T01:38:41;15.90;75.50
10538;DHT22;5317;49.048;8.468;2022-10-31T01:41:10;15.80;75.30
10538;DHT22;5317;49.048;8.468;2022-10-31T01:43:47;15.80;75.50
10538;DHT22;5317;49.048;8.468;2022-10-31T01:46:21;15.70;75.40
10538;DHT22;5317;49.048;8.468;2022-10-31T01:48:53;15.70;75.50
10538;DHT22;5317;49.048;8.468;2022-10-31T01:51:27;15.70;75.60
10538;DHT22;5317;49.048;8.468;2022-10-31T01:54:02;15.70;75.70
10538;DHT22;5317;49.048;8.468;2022-10-31T01:56:34;15.70;75.60
10538;DHT22;5317;49.048;8.468;2022-10-31T01:59:07;15.60;75.50
10538;DHT22;5317;49.048;8.468;2022-10-31T02:01:39;15.60;75.60
10538;DHT22;5317;49.048;8.468;2022-10-31T02:04:07;15.50;75.50
10538;DHT22;5317;49.048;8.468;2022-10-31T02:06:38;15.60;75.70
10538;DHT22;5317;49.048;8.468;2022-10-31T02:09:12;15.50;75.70
10538;DHT22;5317;49.048;8.468;2022-10-31T02:11:41;15.50;75.70
10538;DHT22;5317;49.048;8.468;2022-10-31T02:14:11;15.50;75.70
10538;DHT22;5317;49.048;8.468;2022-10-31T02:16:40;15.50;75.50
10538;DHT22;5317;49.048;8.468;2022-10-31T02:19:09;15.60;75.70
10538;DHT22;5317;49.048;8.468;2022-10-31T02:21:47;15.50;75.60
10538;DHT22;5317;49.048;8.468;2022-10-31T02:24:52;15.50;75.60
10538;DHT22;5317;49.048;8.468;2022-10-31T02:27:57;15.50;75.80
10538;DHT22;5317;49.048;8.468;2022-10-31T02:30:55;15.50;75.80
10538;DHT22;5317;49.048;8.468;2022-10-31T02:33:38;15.50;75.80
10538;DHT22;5317;49.048;8.468;2022-10-31T02:36:15;15.40;75.80
10538;DHT22;5317;49.048;8.468;2022-10-31T02:38:55;15.40;76.00
10538;DHT22;5317;49.048;8.468;2022-10-31T02:41:33;15.40;75.90
10538;DHT22;5317;49.048;8.468;2022-10-31T02:44:11;15.40;75.60
10538;DHT22;5317;49.048;8.468;2022-10-31T02:46:49;15.30;75.60
10538;DHT22;5317;49.048;8.468;2022-10-31T02:49:22;15.30;75.50
10538;DHT22;5317;49.048;8.468;2022-10-31T02:51:53;15.30;75.50
10538;DHT22;5317;49.048;8.468;2022-10-31T02:54:22;15.30;75.50
10538;DHT22;5317;49.048;8.468;2022-10-31T02:56:54;15.20;75.40
10538;DHT22;5317;49.048;8.468;2022-10-31T02:59:28;15.20;75.60
10538;DHT22;5317;49.048;8.468;2022-10-31T03:05:43;15.20;76.10
10538;DHT22;5317;49.048;8.468;2022-10-31T03:08:26;15.20;76.00
10538;DHT22;5317;49.048;8.468;2022-10-31T03:11:03;15.10;75.80
10538;DHT22;5317;49.048;8.468;2022-10-31T03:13:38;15.10;76.10
10538;DHT22;5317;49.048;8.468;2022-10-31T03:16:15;15.10;76.20
10538;DHT22;5317;49.048;8.468;2022-10-31T03:18:51;15.10;75.80
10538;DHT22;5317;49.048;8.468;2022-10-31T03:21:27;15.10;76.10
10538;DHT22;5317;49.048;8.468;2022-10-31T03:24:01;15.10;76.10
10538;DHT22;5317;49.048;8.468;2022-10-31T03:26:32;15.00;76.20
10538;DHT22;5317;49.048;8.468;2022-10-31T03:29:05;15.00;76.20
10538;DHT22;5317;49.048;8.468;2022-10-31T03:31:35;15.00;75.90
10538;DHT22;5317;49.048;8.468;2022-10-31T03:34:07;15.00;76.00
10538;DHT22;5317;49.048;8.468;2022-10-31T03:36:38;14.90;77.10
10538;DHT22;5317;49.048;8.468;2022-10-31T03:39:09;14.80;77.30
10538;DHT22;5317;49.048;8.468;2022-10-31T03:41:45;14.80;77.20
10538;DHT22;5317;49.048;8.468;2022-10-31T03:44:17;14.80;77.00
10538;DHT22;5317;49.048;8.468;2022-10-31T03:46:47;14.80;76.60
10538;DHT22;5317;49.048;8.468;2022-10-31T03:49:17;14.90;76.60
10538;DHT22;5317;49.048;8.468;2022-10-31T03:51:47;14.90;76.30
10538;DHT22;5317;49.048;8.468;2022-10-31T03:54:25;14.90;76.30
10538;DHT22;5317;49.048;8.468;2022-10-31T03:56:59;14.80;76.10
10538;DHT22;5317;49.048;8.468;2022-10-31T03:59:36;14.80;77.00
10538;DHT22;5317;49.048;8.468;2022-10-31T04:02:10;14.80;76.40
10538;DHT22;5317;49.048;8.468;2022-10-31T04:04:43;14.80;76.40
10538;DHT22;5317;49.048;8.468;2022-10-31T04:07:13;14.70;76.30
10538;DHT22;5317;49.048;8.468;2022-10-31T04:09:44;14.70;76.30
10538;DHT22;5317;49.048;8.468;2022-10-31T04:12:15;14.70;76.50
10538;DHT22;5317;49.048;8.468;2022-10-31T04:14:46;14.70;76.30
10538;DHT22;5317;49.048;8.468;2022-10-31T04:17:17;14.70;76.30
10538;DHT22;5317;49.048;8.468;2022-10-31T04:19:49;14.70;76.20
10538;DHT22;5317;49.048;8.468;2022-10-31T04:22:16;14.60;76.00
10538;DHT22;5317;49.048;8.468;2022-10-31T04:24:43;14.60;75.70
10538;DHT22;5317;49.048;8.468;2022-10-31T04:27:11;14.60;75.80
10538;DHT22;5317;49.048;8.468;2022-10-31T04:29:38;14.60;76.00
10538;DHT22;5317;49.048;8.468;2022-10-31T04:32:05;14.60;76.00
10538;DHT22;5317;49.048;8.468;2022-10-31T04:34:32;14.60;75.70
10538;DHT22;5317;49.048;8.468;2022-10-31T04:37:01;14.60;75.90
10538;DHT22;5317;49.048;8.468;2022-10-31T04:39:28;14.60;76.10
10538;DHT22;5317;49.048;8.468;2022-10-31T04:41:55;14.50;76.00
10538;DHT22;5317;49.048;8.468;2022-10-31T04:44:23;14.50;75.70
10538;DHT22;5317;49.048;8.468;2022-10-31T04:46:50;14.50;75.30
10538;DHT22;5317;49.048;8.468;2022-10-31T04:49:17;14.50;75.60
10538;DHT22;5317;49.048;8.468;2022-10-31T04:51:45;14.50;75.70
10538;DHT22;5317;49.048;8.468;2022-10-31T04:54:13;14.50;75.60
10538;DHT22;5317;49.048;8.468;2022-10-31T04:56:43;14.40;75.60
10538;DHT22;5317;49.048;8.468;2022-10-31T04:59:10;14.40;75.90
10538;DHT22;5317;49.048;8.468;2022-10-31T05:01:38;14.30;76.20
10538;DHT22;5317;49.048;8.468;2022-10-31T05:04:05;14.30;76.70
10538;DHT22;5317;49.048;8.468;2022-10-31T05:06:32;14.30;76.70
10538;DHT22;5317;49.048;8.468;2022-10-31T05:08:59;14.30;76.70
10538;DHT22;5317;49.048;8.468;2022-10-31T05:11:28;14.30;76.20
10538;DHT22;5317;49.048;8.468;2022-10-31T05:13:55;14.30;76.10
10538;DHT22;5317;49.048;8.468;2022-10-31T05:16:22;14.30;75.90
10538;DHT22;5317;49.048;8.468;2022-10-31T05:18:50;14.30;76.00
10538;DHT22;5317;49.048;8.468;2022-10-31T05:21:17;14.30;76.00
10538;DHT22;5317;49.048;8.468;2022-10-31T05:23:44;14.30;75.90
10538;DHT22;5317;49.048;8.468;2022-10-31T05:26:11;14.20;75.70
10538;DHT22;5317;49.048;8.468;2022-10-31T05:28:40;14.20;75.70
10538;DHT22;5317;49.048;8.468;2022-10-31T05:31:07;14.10;75.60
10538;DHT22;5317;49.048;8.468;2022-10-31T05:33:34;14.10;75.50
10538;DHT22;5317;49.048;8.468;2022-10-31T05:36:02;14.10;75.40
10538;DHT22;5317;49.048;8.468;2022-10-31T05:38:32;14.10;75.50
10538;DHT22;5317;49.048;8.468;2022-10-31T05:41:01;14.10;75.50
10538;DHT22;5317;49.048;8.468;2022-10-31T05:43:29;14.00;75.80
10538;DHT22;5317;49.048;8.468;2022-10-31T05:45:59;14.00;75.90
10538;DHT22;5317;49.048;8.468;2022-10-31T05:48:26;14.00;76.10
10538;DHT22;5317;49.048;8.468;2022-10-31T05:50:53;14.00;76.10
10538;DHT22;5317;49.048;8.468;2022-10-31T05:53:20;13.90;75.70
10538;DHT22;5317;49.048;8.468;2022-10-31T05:55:47;13.90;75.80
10538;DHT22;5317;49.048;8.468;2022-10-31T05:58:14;13.90;76.00
10538;DHT22;5317;49.048;8.468;2022-10-31T06:00:42;14.00;75.90
10538;DHT22;5317;49.048;8.468;2022-10-31T06:03:10;14.00;75.80
10538;DHT22;5317;49.048;8.468;2022-10-31T06:05:37;14.00;75.70
10538;DHT22;5317;49.048;8.468;2022-10-31T06:08:05;14.00;75.70
10538;DHT22;5317;49.048;8.468;2022-10-31T06:10:32;14.00;75.70
10538;DHT22;5317;49.048;8.468;2022-10-31T06:12:59;13.90;75.50
10538;DHT22;5317;49.048;8.468;2022-10-31T06:15:27;13.90;75.50
10538;DHT22;5317;49.048;8.468;2022-10-31T06:18:02;13.90;75.50
10538;DHT22;5317;49.048;8.468;2022-10-31T06:20:32;13.90;75.70
10538;DHT22;5317;49.048;8.468;2022-10-31T06:23:00;14.00;75.90
10538;DHT22;5317;49.048;8.468;2022-10-31T06:25:28;14.00;76.10
10538;DHT22;5317;49.048;8.468;2022-10-31T06:27:56;14.00;76.20
10538;DHT22;5317;49.048;8.468;2022-10-31T06:30:23;14.00;76.30
10538;DHT22;5317;49.048;8.468;2022-10-31T06:32:50;14.00;76.50
10538;DHT22;5317;49.048;8.468;2022-10-31T06:35:19;14.00;76.50
10538;DHT22;5317;49.048;8.468;2022-10-31T06:37:52;14.10;76.60
10538;DHT22;5317;49.048;8.468;2022-10-31T06:40:20;14.10;76.60
10538;DHT22;5317;49.048;8.468;2022-10-31T06:42:56;14.10;76.70
10538;DHT22;5317;49.048;8.468;2022-10-31T06:45:24;14.10;76.80
10538;DHT22;5317;49.048;8.468;2022-10-31T06:47:51;14.10;76.80
10538;DHT22;5317;49.048;8.468;2022-10-31T06:50:19;14.20;76.80
10538;DHT22;5317;49.048;8.468;2022-10-31T06:52:52;14.20;76.80
10538;DHT22;5317;49.048;8.468;2022-10-31T06:55:20;14.20;76.90
10538;DHT22;5317;49.048;8.468;2022-10-31T06:57:49;14.30;77.00
10538;DHT22;5317;49.048;8.468;2022-10-31T07:00:17;14.40;77.40
10538;DHT22;5317;49.048;8.468;2022-10-31T07:02:54;14.40;77.60
10538;DHT22;5317;49.048;8.468;2022-10-31T07:05:22;14.50;78.00
10538;DHT22;5317;49.048;8.468;2022-10-31T07:07:53;14.50;77.90
10538;DHT22;5317;49.048;8.468;2022-10-31T07:10:22;14.50;78.10
10538;DHT22;5317;49.048;8.468;2022-10-31T07:12:54;14.60;78.30
10538;DHT22;5317;49.048;8.468;2022-10-31T07:15:21;14.60;78.50
10538;DHT22;5317;49.048;8.468;2022-10-31T07:17:49;14.70;78.50
10538;DHT22;5317;49.048;8.468;2022-10-31T07:20:16;14.80;78.70
10538;DHT22;5317;49.048;8.468;2022-10-31T07:22:44;14.90;78.90
10538;DHT22;5317;49.048;8.468;2022-10-31T07:25:13;14.90;78.80
10538;DHT22;5317;49.048;8.468;2022-10-31T07:27:41;15.00;78.90
10538;DHT22;5317;49.048;8.468;2022-10-31T07:30:11;15.00;78.80
10538;DHT22;5317;49.048;8.468;2022-10-31T07:32:44;15.10;78.80
10538;DHT22;5317;49.048;8.468;2022-10-31T07:35:14;15.20;78.80
10538;DHT22;5317;49.048;8.468;2022-10-31T07:37:42;15.20;79.10
10538;DHT22;5317;49.048;8.468;2022-10-31T07:40:10;15.30;79.10
10538;DHT22;5317;49.048;8.468;2022-10-31T07:42:41;15.30;79.10
10538;DHT22;5317;49.048;8.468;2022-10-31T07:45:10;15.40;79.20
10538;DHT22;5317;49.048;8.468;2022-10-31T07:47:39;15.60;79.20
10538;DHT22;5317;49.048;8.468;2022-10-31T07:50:07;15.70;79.00
10538;DHT22;5317;49.048;8.468;2022-10-31T07:52:35;15.80;79.00
10538;DHT22;5317;49.048;8.468;2022-10-31T07:55:04;15.90;78.80
10538;DHT22;5317;49.048;8.468;2022-10-31T07:57:32;16.00;79.10
10538;DHT22;5317;49.048;8.468;2022-10-31T08:00:02;16.00;78.80
10538;DHT22;5317;49.048;8.468;2022-10-31T08:02:29;16.10;78.90
10538;DHT22;5317;49.048;8.468;2022-10-31T08:04:56;16.20;79.70
10538;DHT22;5317;49.048;8.468;2022-10-31T08:07:25;16.30;79.00
10538;DHT22;5317;49.048;8.468;2022-10-31T08:09:53;16.40;78.90
10538;DHT22;5317;49.048;8.468;2022-10-31T08:12:21;16.40;78.70
10538;DHT22;5317;49.048;8.468;2022-10-31T08:14:48;16.60;78.70
10538;DHT22;5317;49.048;8.468;2022-10-31T08:17:17;16.70;78.60
10538;DHT22;5317;49.048;8.468;2022-10-31T08:19:44;16.90;78.50
10538;DHT22;5317;49.048;8.468;2022-10-31T08:22:12;17.00;78.20
10538;DHT22;5317;49.048;8.468;2022-10-31T08:24:39;17.10;78.00
10538;DHT22;5317;49.048;8.468;2022-10-31T08:27:06;17.20;77.90
10538;DHT22;5317;49.048;8.468;2022-10-31T08:29:34;17.30;77.70
10538;DHT22;5317;49.048;8.468;2022-10-31T08:32:01;17.40;77.70
10538;DHT22;5317;49.048;8.468;2022-10-31T08:34:30;17.50;77.70
10538;DHT22;5317;49.048;8.468;2022-10-31T08:36:57;17.60;77.60
10538;DHT22;5317;49.048;8.468;2022-10-31T08:39:24;17.70;77.20
10538;DHT22;5317;49.048;8.468;2022-10-31T08:41:52;17.80;77.00
10538;DHT22;5317;49.048;8.468;2022-10-31T08:44:19;17.90;77.00
10538;DHT22;5317;49.048;8.468;2022-10-31T08:46:46;18.10;77.10
10538;DHT22;5317;49.048;8.468;2022-10-31T08:49:14;18.20;76.70
10538;DHT22;5317;49.048;8.468;2022-10-31T08:51:42;18.30;76.90
10538;DHT22;5317;49.048;8.468;2022-10-31T08:54:10;18.40;76.60
10538;DHT22;5317;49.048;8.468;2022-10-31T08:56:37;18.60;77.20
10538;DHT22;5317;49.048;8.468;2022-10-31T08:59:04;18.70;76.10
10538;DHT22;5317;49.048;8.468;2022-10-31T09:01:33;18.80;75.60
10538;DHT22;5317;49.048;8.468;2022-10-31T09:04:00;18.90;75.40
10538;DHT22;5317;49.048;8.468;2022-10-31T09:06:27;19.00;75.10
10538;DHT22;5317;49.048;8.468;2022-10-31T09:08:55;19.10;75.00
10538;DHT22;5317;49.048;8.468;2022-10-31T09:11:23;19.20;74.70
10538;DHT22;5317;49.048;8.468;2022-10-31T09:13:52;19.20;74.50
10538;DHT22;5317;49.048;8.468;2022-10-31T09:16:19;19.30;74.50
10538;DHT22;5317;49.048;8.468;2022-10-31T09:18:48;19.40;74.40
10538;DHT22;5317;49.048;8.468;2022-10-31T09:21:15;19.50;74.20
10538;DHT22;5317;49.048;8.468;2022-10-31T09:23:42;19.50;73.40
10538;DHT22;5317;49.048;8.468;2022-10-31T09:26:11;19.60;73.50
10538;DHT22;5317;49.048;8.468;2022-10-31T09:28:38;19.70;73.30
10538;DHT22;5317;49.048;8.468;2022-10-31T09:31:06;19.80;73.10
10538;DHT22;5317;49.048;8.468;2022-10-31T09:33:35;19.80;73.10
10538;DHT22;5317;49.048;8.468;2022-10-31T09:36:03;19.90;73.20
10538;DHT22;5317;49.048;8.468;2022-10-31T09:38:31;20.10;72.80
10538;DHT22;5317;49.048;8.468;2022-10-31T09:41:07;20.10;72.70
10538;DHT22;5317;49.048;8.468;2022-10-31T09:43:50;20.20;72.70
10538;DHT22;5317;49.048;8.468;2022-10-31T09:46:31;20.30;71.90
10538;DHT22;5317;49.048;8.468;2022-10-31T09:49:23;20.40;71.50
10538;DHT22;5317;49.048;8.468;2022-10-31T09:52:03;20.50;70.80
10538;DHT22;5317;49.048;8.468;2022-10-31T09:54:40;20.50;70.80
10538;DHT22;5317;49.048;8.468;2022-10-31T09:57:16;20.70;70.50
10538;DHT22;5317;49.048;8.468;2022-10-31T09:59:49;20.70;70.30
10538;DHT22;5317;49.048;8.468;2022-10-31T10:02:20;20.80;70.10
10538;DHT22;5317;49.048;8.468;2022-10-31T10:04:56;20.90;70.20
10538;DHT22;5317;49.048;8.468;2022-10-31T10:07:33;21.00;70.30
10538;DHT22;5317;49.048;8.468;2022-10-31T10:10:14;21.00;69.40
10538;DHT22;5317;49.048;8.468;2022-10-31T10:13:04;21.00;68.70
10538;DHT22;5317;49.048;8.468;2022-10-31T10:16:08;21.10;68.30
10538;DHT22;5317;49.048;8.468;2022-10-31T10:18:58;21.20;68.60
10538;DHT22;5317;49.048;8.468;2022-10-31T10:21:42;21.30;68.90
10538;DHT22;5317;49.048;8.468;2022-10-31T10:24:29;21.20;68.80
10538;DHT22;5317;49.048;8.468;2022-10-31T10:27:12;21.20;68.20
10538;DHT22;5317;49.048;8.468;2022-10-31T10:29:53;21.30;68.40
10538;DHT22;5317;49.048;8.468;2022-10-31T10:32:30;21.30;68.30
10538;DHT22;5317;49.048;8.468;2022-10-31T10:35:14;21.30;68.50
10538;DHT22;5317;49.048;8.468;2022-10-31T10:37:49;21.30;68.40
10538;DHT22;5317;49.048;8.468;2022-10-31T10:40:21;21.30;68.30
10538;DHT22;5317;49.048;8.468;2022-10-31T10:42:58;21.30;68.10
10538;DHT22;5317;49.048;8.468;2022-10-31T10:46:00;21.40;67.90
10538;DHT22;5317;49.048;8.468;2022-10-31T10:49:04;21.40;67.70
10538;DHT22;5317;49.048;8.468;2022-10-31T10:51:45;21.30;67.90
10538;DHT22;5317;49.048;8.468;2022-10-31T10:54:26;21.30;68.20
10538;DHT22;5317;49.048;8.468;2022-10-31T10:57:15;21.40;68.50
10538;DHT22;5317;49.048;8.468;2022-10-31T10:59:49;21.40;68.20
10538;DHT22;5317;49.048;8.468;2022-10-31T11:02:21;21.40;68.30
10538;DHT22;5317;49.048;8.468;2022-10-31T11:04:51;21.40;68.30
10538;DHT22;5317;49.048;8.468;2022-10-31T11:07:21;21.40;68.40
10538;DHT22;5317;49.048;8.468;2022-10-31T11:09:49;21.40;67.90
10538;DHT22;5317;49.048;8.468;2022-10-31T11:12:20;21.40;67.70
10538;DHT22;5317;49.048;8.468;2022-10-31T11:14:53;21.40;68.50
10538;DHT22;5317;49.048;8.468;2022-10-31T11:17:29;21.50;68.50
10538;DHT22;5317;49.048;8.468;2022-10-31T11:20:01;21.50;68.50
10538;DHT22;5317;49.048;8.468;2022-10-31T11:22:30;21.60;68.50
10538;DHT22;5317;49.048;8.468;2022-10-31T11:24:57;21.60;68.10
10538;DHT22;5317;49.048;8.468;2022-10-31T11:27:26;21.60;67.60
10538;DHT22;5317;49.048;8.468;2022-10-31T11:30:04;21.60;67.80
10538;DHT22;5317;49.048;8.468;2022-10-31T11:32:34;21.60;67.50
10538;DHT22;5317;49.048;8.468;2022-10-31T11:35:03;21.70;67.90
10538;DHT22;5317;49.048;8.468;2022-10-31T11:37:42;21.70;68.00
10538;DHT22;5317;49.048;8.468;2022-10-31T11:40:16;21.70;67.90
10538;DHT22;5317;49.048;8.468;2022-10-31T11:42:46;21.70;68.10
10538;DHT22;5317;49.048;8.468;2022-10-31T11:45:16;21.70;68.20
10538;DHT22;5317;49.048;8.468;2022-10-31T11:47:55;21.70;68.00
10538;DHT22;5317;49.048;8.468;2022-10-31T11:50:25;21.70;68.20
10538;DHT22;5317;49.048;8.468;2022-10-31T11:52:55;21.80;68.00
10538;DHT22;5317;49.048;8.468;2022-10-31T11:55:32;21.80;67.90
10538;DHT22;5317;49.048;8.468;2022-10-31T11:58:00;21.70;66.90
10538;DHT22;5317;49.048;8.468;2022-10-31T12:00:29;21.70;67.10
10538;DHT22;5317;49.048;8.468;2022-10-31T12:03:12;21.60;67.00
10538;DHT22;5317;49.048;8.468;2022-10-31T12:05:57;21.50;67.20
10538;DHT22;5317;49.048;8.468;2022-10-31T12:08:30;21.50;67.50
10538;DHT22;5317;49.048;8.468;2022-10-31T12:11:08;21.60;67.90
10538;DHT22;5317;49.048;8.468;2022-10-31T12:13:55;21.60;68.00
10538;DHT22;5317;49.048;8.468;2022-10-31T12:16:35;21.70;67.70
10538;DHT22;5317;49.048;8.468;2022-10-31T12:19:12;21.60;67.40
10538;DHT22;5317;49.048;8.468;2022-10-31T12:21:58;21.60;67.90
10538;DHT22;5317;49.048;8.468;2022-10-31T12:24:54;21.60;68.10
10538;DHT22;5317;49.048;8.468;2022-10-31T12:27:48;21.70;67.60
10538;DHT22;5317;49.048;8.468;2022-10-31T12:30:28;21.70;67.50
10538;DHT22;5317;49.048;8.468;2022-10-31T12:33:23;21.80;68.10
10538;DHT22;5317;49.048;8.468;2022-10-31T12:36:32;21.80;67.90
10538;DHT22;5317;49.048;8.468;2022-10-31T12:39:23;21.90;68.20
10538;DHT22;5317;49.048;8.468;2022-10-31T12:41:56;21.80;68.10
10538;DHT22;5317;49.048;8.468;2022-10-31T12:44:54;21.80;67.90
10538;DHT22;5317;49.048;8.468;2022-10-31T12:48:00;21.70;68.00
10538;DHT22;5317;49.048;8.468;2022-10-31T12:50:50;21.70;68.00
10538;DHT22;5317;49.048;8.468;2022-10-31T12:53:34;21.70;68.10
10538;DHT22;5317;49.048;8.468;2022-10-31T12:56:23;21.60;68.00
10538;DHT22;5317;49.048;8.468;2022-10-31T12:59:07;21.70;68.60
10538;DHT22;5317;49.048;8.468;2022-10-31T13:01:44;21.70;68.50
10538;DHT22;5317;49.048;8.468;2022-10-31T13:04:19;21.80;68.30
10538;DHT22;5317;49.048;8.468;2022-10-31T13:06:56;22.30;68.20
10538;DHT22;5317;49.048;8.468;2022-10-31T13:09:32;24.30;66.20
10538;DHT22;5317;49.048;8.468;2022-10-31T13:12:10;26.90;59.60
10538;DHT22;5317;49.048;8.468;2022-10-31T13:14:42;29.80;53.60
10538;DHT22;5317;49.048;8.468;2022-10-31T13:17:21;32.40;49.50
10538;DHT22;5317;49.048;8.468;2022-10-31T13:20:13;34.50;44.30
10538;DHT22;5317;49.048;8.468;2022-10-31T13:22:48;35.50;39.30
10538;DHT22;5317;49.048;8.468;2022-10-31T13:25:24;35.90;40.10
10538;DHT22;5317;49.048;8.468;2022-10-31T13:27:57;35.60;39.60
10538;DHT22;5317;49.048;8.468;2022-10-31T13:30:29;35.90;39.20
10538;DHT22;5317;49.048;8.468;2022-10-31T13:33:03;36.70;38.30
10538;DHT22;5317;49.048;8.468;2022-10-31T13:35:41;37.50;36.40
10538;DHT22;5317;49.048;8.468;2022-10-31T13:38:20;38.60;35.10
10538;DHT22;5317;49.048;8.468;2022-10-31T13:41:00;39.40;33.10
10538;DHT22;5317;49.048;8.468;2022-10-31T13:43:41;39.70;32.60
10538;DHT22;5317;49.048;8.468;2022-10-31T13:46:24;40.50;31.60
10538;DHT22;5317;49.048;8.468;2022-10-31T13:49:00;41.00;31.50
10538;DHT22;5317;49.048;8.468;2022-10-31T13:51:29;41.50;31.40
10538;DHT22;5317;49.048;8.468;2022-10-31T13:54:00;41.90;30.90
10538;DHT22;5317;49.048;8.468;2022-10-31T13:56:34;42.10;30.20
10538;DHT22;5317;49.048;8.468;2022-10-31T13:59:14;42.10;29.70
10538;DHT22;5317;49.048;8.468;2022-10-31T14:01:50;42.20;29.50
10538;DHT22;5317;49.048;8.468;2022-10-31T14:04:22;41.20;30.00
10538;DHT22;5317;49.048;8.468;2022-10-31T14:07:04;39.50;31.30
10538;DHT22;5317;49.048;8.468;2022-10-31T14:09:35;37.50;32.60
10538;DHT22;5317;49.048;8.468;2022-10-31T14:12:08;35.60;35.30
10538;DHT22;5317;49.048;8.468;2022-10-31T14:14:49;33.80;37.40
10538;DHT22;5317;49.048;8.468;2022-10-31T14:17:23;32.20;39.90
10538;DHT22;5317;49.048;8.468;2022-10-31T14:20:01;30.80;42.20
10538;DHT22;5317;49.048;8.468;2022-10-31T14:22:45;29.70;44.40
10538;DHT22;5317;49.048;8.468;2022-10-31T14:25:31;28.70;47.10
10538;DHT22;5317;49.048;8.468;2022-10-31T14:28:03;27.80;48.50
10538;DHT22;5317;49.048;8.468;2022-10-31T14:30:51;27.10;49.50
10538;DHT22;5317;49.048;8.468;2022-10-31T14:33:20;26.50;51.30
10538;DHT22;5317;49.048;8.468;2022-10-31T14:35:54;26.20;51.60
10538;DHT22;5317;49.048;8.468;2022-10-31T14:38:40;26.00;52.10
10538;DHT22;5317;49.048;8.468;2022-10-31T14:41:48;26.30;53.00
10538;DHT22;5317;49.048;8.468;2022-10-31T14:45:08;26.50;53.40
10538;DHT22;5317;49.048;8.468;2022-10-31T14:48:01;26.20;53.90
10538;DHT22;5317;49.048;8.468;2022-10-31T14:50:53;25.80;54.10
10538;DHT22;5317;49.048;8.468;2022-10-31T14:53:25;25.30;55.10
10538;DHT22;5317;49.048;8.468;2022-10-31T14:55:56;25.00;55.80
10538;DHT22;5317;49.048;8.468;2022-10-31T14:58:28;24.70;56.30
10538;DHT22;5317;49.048;8.468;2022-10-31T15:01:04;24.40;57.40
10538;DHT22;5317;49.048;8.468;2022-10-31T15:03:34;24.20;58.10
10538;DHT22;5317;49.048;8.468;2022-10-31T15:06:11;23.90;58.60
10538;DHT22;5317;49.048;8.468;2022-10-31T15:08:43;23.70;59.80
10538;DHT22;5317;49.048;8.468;2022-10-31T15:11:15;23.50;60.60
10538;DHT22;5317;49.048;8.468;2022-10-31T15:13:45;23.40;60.30
10538;DHT22;5317;49.048;8.468;2022-10-31T15:16:17;23.20;61.20
10538;DHT22;5317;49.048;8.468;2022-10-31T15:18:52;23.10;61.80
10538;DHT22;5317;49.048;8.468;2022-10-31T15:21:23;22.90;62.40
10538;DHT22;5317;49.048;8.468;2022-10-31T15:23:55;22.80;62.50
10538;DHT22;5317;49.048;8.468;2022-10-31T15:26:29;22.70;63.40
10538;DHT22;5317;49.048;8.468;2022-10-31T15:29:00;22.60;63.80
10538;DHT22;5317;49.048;8.468;2022-10-31T15:31:30;22.50;64.30
10538;DHT22;5317;49.048;8.468;2022-10-31T15:34:00;22.30;64.90
10538;DHT22;5317;49.048;8.468;2022-10-31T15:36:31;22.30;65.60
10538;DHT22;5317;49.048;8.468;2022-10-31T15:38:59;22.10;65.80
10538;DHT22;5317;49.048;8.468;2022-10-31T15:41:33;22.00;65.90
10538;DHT22;5317;49.048;8.468;2022-10-31T15:44:11;22.00;66.70
10538;DHT22;5317;49.048;8.468;2022-10-31T15:46:43;21.90;67.10
10538;DHT22;5317;49.048;8.468;2022-10-31T15:49:23;21.90;68.30
10538;DHT22;5317;49.048;8.468;2022-10-31T15:52:03;21.80;68.10
10538;DHT22;5317;49.048;8.468;2022-10-31T15:54:35;21.70;68.10
10538;DHT22;5317;49.048;8.468;2022-10-31T15:57:10;21.60;68.10
10538;DHT22;5317;49.048;8.468;2022-10-31T15:59:41;21.60;69.30
10538;DHT22;5317;49.048;8.468;2022-10-31T16:02:17;21.50;68.60
10538;DHT22;5317;49.048;8.468;2022-10-31T16:04:53;21.40;68.80
10538;DHT22;5317;49.048;8.468;2022-10-31T16:07:22;21.40;69.20
10538;DHT22;5317;49.048;8.468;2022-10-31T16:09:51;21.30;68.90
10538;DHT22;5317;49.048;8.468;2022-10-31T16:12:22;21.30;69.20
10538;DHT22;5317;49.048;8.468;2022-10-31T16:14:51;21.30;69.70
10538;DHT22;5317;49.048;8.468;2022-10-31T16:17:23;21.20;69.80
10538;DHT22;5317;49.048;8.468;2022-10-31T16:19:57;21.20;70.00
10538;DHT22;5317;49.048;8.468;2022-10-31T16:22:29;21.10;70.50
10538;DHT22;5317;49.048;8.468;2022-10-31T16:25:02;21.00;70.80
10538;DHT22;5317;49.048;8.468;2022-10-31T16:27:34;20.80;72.20